createdAt,value
2018-02-16T00:00:03.531Z,86.57
2018-02-16T00:02:31.362Z,86.62
2018-02-16T00:04:58.883Z,86.69
2018-02-16T00:07:26.435Z,86.77
2018-02-16T00:09:53.947Z,87.22
2018-02-16T00:12:21.502Z,87.32
2018-02-16T00:14:49.078Z,87.20
2018-02-16T00:17:16.611Z,86.88
2018-02-16T00:19:44.154Z,87.01
2018-02-16T00:22:13.486Z,87.15
2018-02-16T00:24:41.015Z,87.67
2018-02-16T00:27:08.624Z,87.72
2018-02-16T00:29:36.160Z,88.12
2018-02-16T00:32:03.688Z,88.39
2018-02-16T00:34:31.243Z,88.23
2018-02-16T00:36:58.788Z,88.39
2018-02-16T00:39:26.338Z,88.39
2018-02-16T00:41:53.876Z,88.28
2018-02-16T00:44:21.402Z,88.30
2018-02-16T00:46:48.959Z,88.73
2018-02-16T00:49:16.495Z,88.71
2018-02-16T00:51:44.048Z,88.81
2018-02-16T00:54:11.878Z,89.02
2018-02-16T00:56:39.435Z,88.95
2018-02-16T00:59:07.304Z,89.03
2018-02-16T01:01:34.841Z,88.89
2018-02-16T01:04:02.358Z,89.05
2018-02-16T01:06:29.918Z,88.92
2018-02-16T01:08:57.515Z,88.95
2018-02-16T01:11:25.047Z,88.66
2018-02-16T01:13:52.596Z,88.87
2018-02-16T01:16:20.446Z,88.85
2018-02-16T01:18:48.011Z,88.74
2018-02-16T01:21:15.545Z,88.84
2018-02-16T01:23:43.322Z,88.92
2018-02-16T01:26:11.087Z,88.93
2018-02-16T01:28:38.956Z,88.65
2018-02-16T01:31:06.498Z,88.68
2018-02-16T01:33:34.034Z,88.65
2018-02-16T01:36:01.590Z,88.88
2018-02-16T01:38:29.120Z,88.77
2018-02-16T01:40:56.700Z,88.96
2018-02-16T01:45:58.229Z,89.07
2018-02-16T01:48:25.809Z,89.26
2018-02-16T01:50:53.322Z,89.18
2018-02-16T01:53:21.227Z,89.14
2018-02-16T01:55:48.793Z,88.97
2018-02-16T01:58:16.645Z,88.78
2018-02-16T02:00:44.187Z,88.51
2018-02-16T02:03:11.729Z,88.42
2018-02-16T02:05:39.327Z,88.07
2018-02-16T02:08:06.867Z,87.94
2018-02-16T02:10:34.674Z,87.69
2018-02-16T02:13:02.191Z,87.59
2018-02-16T02:15:29.743Z,87.71
2018-02-16T02:17:57.278Z,87.91
2018-02-16T02:20:24.814Z,87.87
2018-02-16T02:22:52.373Z,87.71
2018-02-16T02:25:19.890Z,87.94
2018-02-16T02:27:47.693Z,87.91
2018-02-16T02:30:15.562Z,87.80
2018-02-16T02:32:43.117Z,87.74
2018-02-16T02:35:10.659Z,87.28
2018-02-16T02:37:38.197Z,87.28
2018-02-16T02:40:05.786Z,87.33
2018-02-16T02:42:33.321Z,87.15
2018-02-16T02:45:00.856Z,87.25
2018-02-16T02:47:28.943Z,87.38
2018-02-16T02:49:56.473Z,86.91
2018-02-16T02:52:24.008Z,86.86
2018-02-16T02:54:51.566Z,86.86
2018-02-16T02:57:19.122Z,86.79
2018-02-16T02:59:46.659Z,86.82
2018-02-16T03:02:14.465Z,86.86
2018-02-16T03:04:42.003Z,86.35
2018-02-16T03:07:09.563Z,86.80
2018-02-16T03:09:37.129Z,86.97
2018-02-16T03:12:04.710Z,87.06
2018-02-16T03:14:32.231Z,86.40
2018-02-16T03:16:59.806Z,86.14
2018-02-16T03:19:27.334Z,86.57
2018-02-16T03:21:55.147Z,86.77
2018-02-16T03:24:22.712Z,86.87
2018-02-16T03:26:50.298Z,86.82
2018-02-16T03:29:17.845Z,86.15
2018-02-16T03:31:45.407Z,86.13
2018-02-16T03:34:12.939Z,86.36
2018-02-16T03:36:40.453Z,86.67
2018-02-16T03:39:07.998Z,86.99
2018-02-16T03:41:35.542Z,87.05
2018-02-16T03:44:03.070Z,87.17
2018-02-16T03:46:30.624Z,87.07
2018-02-16T03:48:58.166Z,87.17
2018-02-16T03:51:25.701Z,87.20
2018-02-16T03:53:53.347Z,86.86
2018-02-16T03:56:20.882Z,86.71
2018-02-16T03:58:48.426Z,86.86
2018-02-16T04:01:15.998Z,86.98
2018-02-16T04:03:43.520Z,87.10
2018-02-16T04:06:11.065Z,87.31
2018-02-16T04:08:38.642Z,87.28
2018-02-16T04:11:06.200Z,87.40
2018-02-16T04:13:33.739Z,87.53
2018-02-16T04:16:01.310Z,87.58
2018-02-16T04:18:28.859Z,87.88
2018-02-16T04:20:56.707Z,87.89
2018-02-16T04:23:24.357Z,87.97
2018-02-16T04:25:52.140Z,88.14
2018-02-16T04:28:20.003Z,88.38
2018-02-16T04:30:47.552Z,88.54
2018-02-16T04:33:15.435Z,88.77
2018-02-16T04:35:42.965Z,88.90
2018-02-16T04:38:10.537Z,88.82
2018-02-16T04:40:38.070Z,88.77
2018-02-16T04:43:05.589Z,89.15
2018-02-16T04:45:33.141Z,89.04
2018-02-16T04:48:00.677Z,89.01
2018-02-16T04:50:28.206Z,89.21
2018-02-16T04:52:56.028Z,89.27
2018-02-16T04:55:23.550Z,89.64
2018-02-16T04:57:51.346Z,89.95
2018-02-16T05:00:18.906Z,90.20
2018-02-16T05:02:46.426Z,90.13
2018-02-16T05:05:13.987Z,90.07
2018-02-16T05:07:41.540Z,90.31
2018-02-16T05:10:09.073Z,90.22
2018-02-16T05:12:36.599Z,90.27
2018-02-16T05:15:04.162Z,90.67
2018-02-16T05:17:31.949Z,91.04
2018-02-16T05:19:59.506Z,91.06
2018-02-16T05:22:27.073Z,91.25
2018-02-16T05:24:54.608Z,91.33
2018-02-16T05:27:22.144Z,91.43
2018-02-16T05:29:49.704Z,91.31
2018-02-16T05:32:17.243Z,91.39
2018-02-16T05:34:44.774Z,91.18
2018-02-16T05:37:12.390Z,91.11
2018-02-16T05:39:40.189Z,91.37
2018-02-16T05:42:07.724Z,91.46
2018-02-16T05:44:35.310Z,91.27
2018-02-16T05:47:02.835Z,91.10
2018-02-16T05:49:30.378Z,90.89
2018-02-16T05:51:57.925Z,90.82
2018-02-16T05:54:25.463Z,90.95
2018-02-16T05:56:53.002Z,90.74
2018-02-16T05:59:20.563Z,90.53
2018-02-16T06:01:48.404Z,90.38
2018-02-16T06:04:16.305Z,90.26
2018-02-16T06:06:43.910Z,90.28
2018-02-16T06:09:11.461Z,90.05
2018-02-16T06:11:38.990Z,89.91
2018-02-16T06:14:06.617Z,89.78
2018-02-16T06:16:34.297Z,89.42
2018-02-16T06:19:01.992Z,89.27
2018-02-16T06:21:29.596Z,89.32
2018-02-16T06:23:57.138Z,89.02
2018-02-16T06:26:24.658Z,89.09
2018-02-16T06:28:52.260Z,89.06
2018-02-16T06:31:20.145Z,89.04
2018-02-16T06:33:47.654Z,88.79
2018-02-16T06:38:49.122Z,88.44
2018-02-16T06:41:16.690Z,88.44
2018-02-16T06:43:44.251Z,88.10
2018-02-16T06:46:11.784Z,87.77
2018-02-16T06:48:39.407Z,87.49
2018-02-16T06:51:06.922Z,87.56
2018-02-16T06:53:34.798Z,87.50
2018-02-16T06:56:02.408Z,87.31
2018-02-16T06:58:29.949Z,87.28
2018-02-16T07:00:57.513Z,87.12
2018-02-16T07:03:25.385Z,87.30
2018-02-16T07:05:53.119Z,86.94
2018-02-16T07:08:20.645Z,86.71
2018-02-16T07:10:48.435Z,86.37
2018-02-16T07:13:16.015Z,85.90
2018-02-16T07:15:43.537Z,85.49
2018-02-16T07:18:11.124Z,84.85
2018-02-16T07:20:38.650Z,84.55
2018-02-16T07:23:06.188Z,84.41
2018-02-16T07:25:33.770Z,83.44
2018-02-16T07:28:01.467Z,83.02
2018-02-16T07:30:29.820Z,82.67
2018-02-16T07:32:57.391Z,82.19
2018-02-16T07:35:24.930Z,82.02
2018-02-16T07:37:52.543Z,81.83
2018-02-16T07:40:20.723Z,81.13
2018-02-16T07:42:48.264Z,81.15
2018-02-16T07:45:15.806Z,80.77
2018-02-16T07:47:43.368Z,80.08
2018-02-16T07:50:10.930Z,80.16
2018-02-16T07:52:38.457Z,79.48
2018-02-16T07:55:06.015Z,78.87
2018-02-16T07:57:33.548Z,78.71
2018-02-16T08:00:01.082Z,78.15
2018-02-16T08:02:29.832Z,77.62
2018-02-16T08:04:57.809Z,77.48
2018-02-16T08:07:25.333Z,77.10
2018-02-16T08:09:52.917Z,77.22
2018-02-16T08:12:20.438Z,77.03
2018-02-16T08:14:48.741Z,76.61
2018-02-16T08:17:16.314Z,76.28
2018-02-16T08:19:43.881Z,75.86
2018-02-16T08:22:11.684Z,75.33
2018-02-16T08:24:39.259Z,74.02
2018-02-16T08:27:06.928Z,73.62
2018-02-16T08:29:34.485Z,72.78
2018-02-16T08:32:06.223Z,72.01
2018-02-16T08:34:33.759Z,71.69
2018-02-16T08:37:01.330Z,71.60
2018-02-16T08:39:28.925Z,70.80
2018-02-16T08:41:56.457Z,70.68
2018-02-16T08:44:24.288Z,70.69
2018-02-16T08:46:53.304Z,70.08
2018-02-16T08:49:20.866Z,69.69
2018-02-16T08:51:48.537Z,69.12
2018-02-16T08:54:16.178Z,68.38
2018-02-16T08:56:43.806Z,67.99
2018-02-16T08:59:11.342Z,67.42
2018-02-16T09:01:39.023Z,67.57
2018-02-16T09:04:06.564Z,67.76
2018-02-16T09:06:34.208Z,67.73
2018-02-16T09:09:01.813Z,67.55
2018-02-16T09:11:29.686Z,67.04
2018-02-16T09:13:57.649Z,66.47
2018-02-16T09:16:25.202Z,66.37
2018-02-16T09:18:52.735Z,66.09
2018-02-16T09:21:20.292Z,65.90
2018-02-16T09:23:47.870Z,65.63
2018-02-16T09:26:15.641Z,65.57
2018-02-16T09:28:43.506Z,65.54
2018-02-16T09:31:11.070Z,65.98
2018-02-16T09:33:38.934Z,64.91
2018-02-16T09:36:10.703Z,64.88
2018-02-16T09:38:38.284Z,65.00
2018-02-16T09:41:05.843Z,65.13
2018-02-16T09:43:33.480Z,65.04
2018-02-16T09:46:01.006Z,64.31
2018-02-16T09:48:28.558Z,64.57
2018-02-16T09:50:56.158Z,64.54
2018-02-16T09:53:23.684Z,64.64
2018-02-16T09:55:51.237Z,64.50
2018-02-16T09:58:18.794Z,64.62
2018-02-16T10:00:46.420Z,64.59
2018-02-16T10:03:13.978Z,64.92
2018-02-16T10:05:41.536Z,64.71
2018-02-16T10:08:09.211Z,64.96
2018-02-16T10:10:36.759Z,64.71
2018-02-16T10:13:04.345Z,65.06
2018-02-16T10:15:31.941Z,64.75
2018-02-16T10:17:59.461Z,64.40
2018-02-16T10:20:27.081Z,64.64
2018-02-16T10:22:54.973Z,64.55
2018-02-16T10:25:22.566Z,64.49
2018-02-16T10:27:50.497Z,63.94
2018-02-16T10:30:18.370Z,63.09
2018-02-16T10:32:45.904Z,62.29
2018-02-16T10:35:13.480Z,61.86
2018-02-16T10:37:41.032Z,62.08
2018-02-16T10:40:08.813Z,62.07
2018-02-16T10:42:36.431Z,62.03
2018-02-16T10:45:03.996Z,61.45
2018-02-16T10:47:31.591Z,62.02
2018-02-16T10:49:59.179Z,61.61
2018-02-16T10:52:27.024Z,62.16
2018-02-16T10:54:54.554Z,63.32
2018-02-16T10:57:22.122Z,62.75
2018-02-16T10:59:50.013Z,62.09
2018-02-16T11:02:23.310Z,62.25
2018-02-16T11:04:56.551Z,62.43
2018-02-16T11:07:36.523Z,62.30
2018-02-16T11:10:04.081Z,63.31
2018-02-16T11:12:31.702Z,63.67
2018-02-16T11:14:59.311Z,63.20
2018-02-16T11:17:26.860Z,63.23
2018-02-16T11:19:54.470Z,62.95
2018-02-16T11:22:22.007Z,63.14
2018-02-16T11:24:49.536Z,63.28
2018-02-16T11:27:17.203Z,62.72
2018-02-16T11:29:44.783Z,62.56
2018-02-16T11:32:12.602Z,63.24
2018-02-16T11:34:40.206Z,64.58
2018-02-16T11:37:07.765Z,65.20
2018-02-16T11:39:35.322Z,65.44
2018-02-16T11:42:02.919Z,65.75
2018-02-16T11:44:30.491Z,66.27
2018-02-16T11:46:58.351Z,67.42
2018-02-16T11:49:25.875Z,67.37
2018-02-16T11:51:53.458Z,67.00
2018-02-16T11:54:20.980Z,67.42
2018-02-16T11:56:48.522Z,66.29
2018-02-16T11:59:16.352Z,65.66
2018-02-16T12:01:43.926Z,64.37
2018-02-16T12:04:11.778Z,64.64
2018-02-16T12:06:39.782Z,64.69
2018-02-16T12:09:07.341Z,64.04
2018-02-16T12:11:34.897Z,63.79
2018-02-16T12:14:02.738Z,63.92
2018-02-16T12:16:30.279Z,64.14
2018-02-16T12:18:57.823Z,64.60
2018-02-16T12:21:25.629Z,64.88
2018-02-16T12:23:53.500Z,65.47
2018-02-16T12:26:21.028Z,64.97
2018-02-16T12:28:48.611Z,63.59
2018-02-16T12:31:16.135Z,62.83
2018-02-16T12:33:43.677Z,62.21
2018-02-16T12:36:11.237Z,62.11
2018-02-16T12:38:38.770Z,63.28
2018-02-16T12:41:06.311Z,63.64
2018-02-16T12:43:33.857Z,63.75
2018-02-16T12:46:01.399Z,63.68
2018-02-16T12:48:28.938Z,64.41
2018-02-16T12:50:56.765Z,64.19
2018-02-16T12:53:24.632Z,63.35
2018-02-16T12:55:52.398Z,62.85
2018-02-16T12:58:19.970Z,61.83
2018-02-16T13:00:47.485Z,61.81
2018-02-16T13:03:15.017Z,62.03
2018-02-16T13:05:42.590Z,61.93
2018-02-16T13:08:10.152Z,62.09
2018-02-16T13:10:37.694Z,62.94
2018-02-16T13:13:05.266Z,61.87
2018-02-16T13:15:32.807Z,61.71
2018-02-16T13:18:00.688Z,60.89
2018-02-16T13:20:28.256Z,60.96
2018-02-16T13:22:55.999Z,60.63
2018-02-16T13:25:23.525Z,61.32
2018-02-16T13:27:51.140Z,61.23
2018-02-16T13:30:19.882Z,61.27
2018-02-16T13:32:47.446Z,60.11
2018-02-16T13:35:15.016Z,60.06
2018-02-16T13:37:42.558Z,59.74
2018-02-16T13:40:10.143Z,59.11
2018-02-16T13:42:37.724Z,59.02
2018-02-16T13:45:05.245Z,58.15
2018-02-16T13:47:32.927Z,58.75
2018-02-16T13:50:00.533Z,58.10
2018-02-16T13:52:28.365Z,58.63
2018-02-16T13:54:55.885Z,58.41
2018-02-16T13:57:23.458Z,58.09
2018-02-16T13:59:51.066Z,57.57
2018-02-16T14:02:18.891Z,57.62
2018-02-16T14:04:46.450Z,57.29
2018-02-16T14:07:14.012Z,56.59
2018-02-16T14:09:41.569Z,57.06
2018-02-16T14:12:09.450Z,56.89
2018-02-16T14:14:37.310Z,57.09
2018-02-16T14:17:04.826Z,56.92
2018-02-16T14:19:32.740Z,56.93
2018-02-16T14:22:00.505Z,56.82
2018-02-16T14:24:28.268Z,56.81
2018-02-16T14:26:55.881Z,57.14
2018-02-16T14:29:23.415Z,57.03
2018-02-16T14:31:51.276Z,57.53
2018-02-16T14:34:18.869Z,57.49
2018-02-16T14:36:46.422Z,57.99
2018-02-16T14:39:13.953Z,58.35
2018-02-16T14:41:41.571Z,57.89
2018-02-16T14:44:09.162Z,57.98
2018-02-16T14:46:36.656Z,58.56
2018-02-16T14:49:04.204Z,58.70
2018-02-16T14:51:31.941Z,58.44
2018-02-16T14:53:59.517Z,58.83
2018-02-16T14:56:27.195Z,59.03
2018-02-16T14:58:54.731Z,59.76
2018-02-16T15:01:22.297Z,60.12
2018-02-16T15:03:49.850Z,59.56
2018-02-16T15:06:17.408Z,59.82
2018-02-16T15:08:44.943Z,59.06
2018-02-16T15:11:12.525Z,58.08
2018-02-16T15:13:40.130Z,57.35
2018-02-16T15:16:07.661Z,57.64
2018-02-16T15:18:35.235Z,57.25
2018-02-16T15:21:03.104Z,56.74
2018-02-16T15:23:30.677Z,57.07
2018-02-16T15:25:58.410Z,57.03
2018-02-16T15:28:26.134Z,57.13
2018-02-16T15:30:53.667Z,57.00
2018-02-16T15:33:21.232Z,57.18
2018-02-16T15:35:48.759Z,57.36
2018-02-16T15:38:16.296Z,57.93
2018-02-16T15:40:43.898Z,57.81
2018-02-16T15:43:11.515Z,57.82
2018-02-16T15:45:39.072Z,57.54
2018-02-16T15:48:06.634Z,57.51
2018-02-16T15:50:34.195Z,57.83
2018-02-16T15:53:01.722Z,57.66
2018-02-16T15:55:29.492Z,57.59
2018-02-16T15:57:57.033Z,58.15
2018-02-16T16:00:24.583Z,58.58
2018-02-16T16:02:52.175Z,58.77
2018-02-16T16:05:19.744Z,58.94
2018-02-16T16:07:47.278Z,59.19
2018-02-16T16:10:14.883Z,59.47
2018-02-16T16:12:42.414Z,59.90
2018-02-16T16:15:09.959Z,59.71
2018-02-16T16:17:37.570Z,59.87
2018-02-16T16:20:05.099Z,60.17
2018-02-16T16:22:32.706Z,60.15
2018-02-16T16:25:00.320Z,60.33
2018-02-16T16:27:28.128Z,60.46
2018-02-16T16:29:55.674Z,60.58
2018-02-16T16:32:23.256Z,60.91
2018-02-16T16:34:50.822Z,61.15
2018-02-16T16:37:18.380Z,61.57
2018-02-16T16:39:45.991Z,61.55
2018-02-16T16:42:13.513Z,61.80
2018-02-16T16:44:41.086Z,62.14
2018-02-16T16:47:08.702Z,62.57
2018-02-16T16:49:37.430Z,62.89
2018-02-16T16:52:05.643Z,62.85
2018-02-16T16:54:33.753Z,63.28
2018-02-16T16:57:01.369Z,63.45
2018-02-16T16:59:28.918Z,64.30
2018-02-16T17:01:56.472Z,64.46
2018-02-16T17:04:23.999Z,64.58
2018-02-16T17:06:51.534Z,64.87
2018-02-16T17:09:19.134Z,65.04
2018-02-16T17:11:46.770Z,65.09
2018-02-16T17:14:14.399Z,65.34
2018-02-16T17:16:41.986Z,65.42
2018-02-16T17:19:09.627Z,65.61
2018-02-16T17:21:37.891Z,65.79
2018-02-16T17:24:06.274Z,65.96
2018-02-16T17:26:34.644Z,66.11
2018-02-16T17:29:02.773Z,66.17
2018-02-16T17:31:30.865Z,66.27
2018-02-16T17:33:58.395Z,66.31
2018-02-16T17:36:26.204Z,66.65
2018-02-16T17:38:53.876Z,66.73
2018-02-16T17:41:21.413Z,67.10
2018-02-16T17:43:48.937Z,67.61
2018-02-16T17:46:16.542Z,67.91
2018-02-16T17:48:44.107Z,67.76
2018-02-16T17:51:13.434Z,68.00
2018-02-16T17:53:42.451Z,68.16
2018-02-16T17:56:10.189Z,68.08
2018-02-16T17:58:38.731Z,68.13
2018-02-16T18:01:07.573Z,68.46
2018-02-16T18:03:35.379Z,68.62
2018-02-16T18:06:02.922Z,69.03
2018-02-16T18:08:30.497Z,68.92
2018-02-16T18:10:59.254Z,69.07
2018-02-16T18:13:26.847Z,69.44
2018-02-16T18:15:55.136Z,69.55
2018-02-16T18:18:23.476Z,69.51
2018-02-16T18:20:51.246Z,69.90
2018-02-16T18:23:19.359Z,69.82
2018-02-16T18:25:47.090Z,69.89
2018-02-16T18:28:14.806Z,69.83
2018-02-16T18:30:42.664Z,70.01
2018-02-16T18:33:10.218Z,70.16
2018-02-16T18:35:37.765Z,70.30
2018-02-16T18:38:05.713Z,70.28
2018-02-16T18:40:33.262Z,70.24
2018-02-16T18:43:00.838Z,70.38
2018-02-16T18:45:28.409Z,70.46
2018-02-16T18:47:55.963Z,70.57
2018-02-16T18:50:23.485Z,70.60
2018-02-16T18:52:51.851Z,70.78
2018-02-16T18:55:19.380Z,70.84
2018-02-16T18:57:46.945Z,70.84
2018-02-16T19:00:14.512Z,70.70
2018-02-16T19:02:42.391Z,70.75
2018-02-16T19:05:10.368Z,71.00
2018-02-16T19:07:37.905Z,71.10
2018-02-16T19:10:05.446Z,70.99
2018-02-16T19:12:32.997Z,71.02
2018-02-16T19:15:00.544Z,71.22
2018-02-16T19:17:28.724Z,71.21
2018-02-16T19:19:56.253Z,71.36
2018-02-16T19:22:23.847Z,71.47
2018-02-16T19:24:51.417Z,71.61
2018-02-16T19:27:19.344Z,71.71
2018-02-16T19:29:48.070Z,71.79
2018-02-16T19:32:16.036Z,71.69
2018-02-16T19:34:43.558Z,71.74
2018-02-16T19:37:11.133Z,71.92
2018-02-16T19:39:49.591Z,72.04
2018-02-16T19:42:18.092Z,72.04
2018-02-16T19:44:45.608Z,72.23
2018-02-16T19:47:13.143Z,72.04
2018-02-16T19:49:40.707Z,71.93
2018-02-16T19:52:08.255Z,72.14
2018-02-16T19:54:35.799Z,72.55
2018-02-16T19:57:03.369Z,72.58
2018-02-16T19:59:30.969Z,72.57
2018-02-16T20:01:58.547Z,72.69
2018-02-16T20:04:26.114Z,72.89
2018-02-16T20:06:53.670Z,72.92
2018-02-16T20:09:21.216Z,72.59
2018-02-16T20:11:48.787Z,72.69
2018-02-16T20:14:16.315Z,72.91
2018-02-16T20:16:43.951Z,72.82
2018-02-16T20:19:11.567Z,72.89
2018-02-16T20:21:39.126Z,73.26
2018-02-16T20:24:06.664Z,73.63
2018-02-16T20:26:34.234Z,73.92
2018-02-16T20:29:02.071Z,73.70
2018-02-16T20:31:29.635Z,73.52
2018-02-16T20:33:57.232Z,73.39
2018-02-16T20:36:24.786Z,73.86
2018-02-16T20:38:52.329Z,74.02
2018-02-16T20:41:19.886Z,73.81
2018-02-16T20:43:47.424Z,73.81
2018-02-16T20:46:14.978Z,74.06
2018-02-16T20:48:42.583Z,74.14
2018-02-16T20:51:10.421Z,73.96
2018-02-16T20:53:37.986Z,73.84
2018-02-16T20:56:05.533Z,74.21
2018-02-16T20:58:33.114Z,74.38
2018-02-16T21:01:01.082Z,74.26
2018-02-16T21:03:28.638Z,74.43
2018-02-16T21:05:56.220Z,74.31
2018-02-16T21:08:24.059Z,74.72
2018-02-16T21:10:51.623Z,74.78
2018-02-16T21:13:19.194Z,74.66
2018-02-16T21:15:47.057Z,75.22
2018-02-16T21:18:14.618Z,74.95
2018-02-16T21:20:42.184Z,75.31
2018-02-16T21:23:09.742Z,75.13
2018-02-16T21:25:37.303Z,74.93
2018-02-16T21:28:04.884Z,74.96
2018-02-16T21:30:32.402Z,74.93
2018-02-16T21:33:00.285Z,75.22
2018-02-16T21:35:27.838Z,74.95
2018-02-16T21:37:55.416Z,74.90
2018-02-16T21:40:22.993Z,74.70
2018-02-16T21:42:50.542Z,74.88
2018-02-16T21:45:18.068Z,75.25
2018-02-16T21:47:45.640Z,75.17
2018-02-16T21:50:13.175Z,75.02
2018-02-16T21:52:40.783Z,74.93
2018-02-16T21:55:08.391Z,75.19
2018-02-16T21:57:35.977Z,75.06
2018-02-16T22:00:03.557Z,75.07
2018-02-16T22:02:31.201Z,75.32
2018-02-16T22:04:58.722Z,75.41
2018-02-16T22:07:26.242Z,75.58
2018-02-16T22:09:53.801Z,75.72
2018-02-16T22:12:21.323Z,75.64
2018-02-16T22:14:48.866Z,75.56
2018-02-16T22:17:16.435Z,75.42
2018-02-16T22:19:43.950Z,75.54
2018-02-16T22:22:11.489Z,75.53
2018-02-16T22:24:39.049Z,75.66
2018-02-16T22:27:06.577Z,75.77
2018-02-16T22:29:34.089Z,75.94
2018-02-16T22:32:01.665Z,75.80
2018-02-16T22:34:29.194Z,76.02
2018-02-16T22:36:56.730Z,75.98
2018-02-16T22:39:24.281Z,75.89
2018-02-16T22:41:51.837Z,75.88
2018-02-16T22:44:19.844Z,75.93
2018-02-16T22:46:47.743Z,75.98
2018-02-16T22:49:15.287Z,76.39
2018-02-16T22:51:42.840Z,76.03
2018-02-16T22:54:10.719Z,76.07
2018-02-16T22:56:38.269Z,76.50
2018-02-16T22:59:05.825Z,76.50
2018-02-16T23:01:33.406Z,76.92
2018-02-16T23:04:01.028Z,76.99
2018-02-16T23:06:28.658Z,76.85
2018-02-16T23:08:57.088Z,76.79
2018-02-16T23:11:24.701Z,77.15
2018-02-16T23:13:52.534Z,77.01
2018-02-16T23:16:20.079Z,77.29
2018-02-16T23:18:47.804Z,77.06
2018-02-16T23:21:15.387Z,77.08
2018-02-16T23:23:42.947Z,77.31
2018-02-16T23:26:10.743Z,77.41
2018-02-16T23:28:38.513Z,77.36
2018-02-16T23:31:06.089Z,77.14
2018-02-16T23:35:54.850Z,77.35
2018-02-16T23:38:22.416Z,77.25
2018-02-16T23:40:50.187Z,77.21
2018-02-16T23:43:17.669Z,77.14
2018-02-16T23:45:45.211Z,77.05
2018-02-16T23:48:12.749Z,77.07
2018-02-16T23:50:40.303Z,77.07
2018-02-16T23:53:07.863Z,77.22
2018-02-16T23:55:35.423Z,77.23
2018-02-16T23:58:03.050Z,77.20
